sensor_id;sensor_type;location;lat;lon;timestamp;P1;durP1;ratioP1;P2;durP2;ratioP2
69502;SDS011;56704;54.242;12.442;2024-03-25T00:00:17;4.20;;;1.33;;
69502;SDS011;56704;54.242;12.442;2024-03-25T00:02:45;6.47;;;1.85;;
69502;SDS011;56704;54.242;12.442;2024-03-25T00:05:11;6.17;;;1.93;;
69502;SDS011;56704;54.242;12.442;2024-03-25T00:07:40;7.00;;;1.88;;
69502;SDS011;56704;54.242;12.442;2024-03-25T00:10:06;6.68;;;1.73;;
69502;SDS011;56704;54.242;12.442;2024-03-25T00:12:33;6.40;;;2.00;;
69502;SDS011;56704;54.242;12.442;2024-03-25T00:14:59;6.60;;;1.92;;
69502;SDS011;56704;54.242;12.442;2024-03-25T00:17:27;6.55;;;2.30;;
69502;SDS011;56704;54.242;12.442;2024-03-25T00:19:52;6.75;;;2.10;;
69502;SDS011;56704;54.242;12.442;2024-03-25T00:22:19;6.90;;;2.20;;
69502;SDS011;56704;54.242;12.442;2024-03-25T00:24:46;7.70;;;1.92;;
69502;SDS011;56704;54.242;12.442;2024-03-25T00:27:12;9.88;;;2.10;;
69502;SDS011;56704;54.242;12.442;2024-03-25T00:29:38;6.27;;;1.90;;
69502;SDS011;56704;54.242;12.442;2024-03-25T00:32:05;8.83;;;2.63;;
69502;SDS011;56704;54.242;12.442;2024-03-25T00:34:33;8.35;;;2.78;;
69502;SDS011;56704;54.242;12.442;2024-03-25T00:37:00;5.25;;;1.92;;
69502;SDS011;56704;54.242;12.442;2024-03-25T00:39:25;6.93;;;2.53;;
69502;SDS011;56704;54.242;12.442;2024-03-25T00:41:54;7.73;;;2.37;;
69502;SDS011;56704;54.242;12.442;2024-03-25T00:44:19;7.07;;;2.10;;
69502;SDS011;56704;54.242;12.442;2024-03-25T00:46:46;7.53;;;2.23;;
69502;SDS011;56704;54.242;12.442;2024-03-25T00:49:12;7.95;;;2.40;;
69502;SDS011;56704;54.242;12.442;2024-03-25T00:51:40;9.55;;;2.80;;
69502;SDS011;56704;54.242;12.442;2024-03-25T00:54:06;9.33;;;2.93;;
69502;SDS011;56704;54.242;12.442;2024-03-25T00:56:32;9.15;;;2.60;;
69502;SDS011;56704;54.242;12.442;2024-03-25T00:58:58;10.70;;;2.63;;
69502;SDS011;56704;54.242;12.442;2024-03-25T01:01:27;8.50;;;2.50;;
69502;SDS011;56704;54.242;12.442;2024-03-25T01:03:53;9.33;;;2.83;;
69502;SDS011;56704;54.242;12.442;2024-03-25T01:06:19;9.50;;;3.03;;
69502;SDS011;56704;54.242;12.442;2024-03-25T01:08:46;10.87;;;3.17;;
69502;SDS011;56704;54.242;12.442;2024-03-25T01:11:13;9.95;;;3.13;;
69502;SDS011;56704;54.242;12.442;2024-03-25T01:13:38;10.68;;;2.97;;
69502;SDS011;56704;54.242;12.442;2024-03-25T01:16:06;10.90;;;3.23;;
69502;SDS011;56704;54.242;12.442;2024-03-25T01:18:32;10.68;;;3.35;;
69502;SDS011;56704;54.242;12.442;2024-03-25T01:20:59;11.60;;;3.47;;
69502;SDS011;56704;54.242;12.442;2024-03-25T01:23:24;10.17;;;3.07;;
69502;SDS011;56704;54.242;12.442;2024-03-25T01:25:52;12.90;;;3.80;;
69502;SDS011;56704;54.242;12.442;2024-03-25T01:28:18;8.70;;;2.58;;
69502;SDS011;56704;54.242;12.442;2024-03-25T01:30:45;12.30;;;3.53;;
69502;SDS011;56704;54.242;12.442;2024-03-25T01:33:10;9.27;;;3.27;;
69502;SDS011;56704;54.242;12.442;2024-03-25T01:35:37;8.88;;;2.90;;
69502;SDS011;56704;54.242;12.442;2024-03-25T01:38:02;10.57;;;3.53;;
69502;SDS011;56704;54.242;12.442;2024-03-25T01:40:29;12.23;;;3.20;;
69502;SDS011;56704;54.242;12.442;2024-03-25T01:42:56;12.03;;;3.30;;
69502;SDS011;56704;54.242;12.442;2024-03-25T01:45:23;12.27;;;3.60;;
69502;SDS011;56704;54.242;12.442;2024-03-25T01:47:49;11.00;;;3.35;;
69502;SDS011;56704;54.242;12.442;2024-03-25T01:50:16;12.48;;;4.07;;
69502;SDS011;56704;54.242;12.442;2024-03-25T01:52:42;10.60;;;3.43;;
69502;SDS011;56704;54.242;12.442;2024-03-25T01:55:09;11.70;;;4.40;;
69502;SDS011;56704;54.242;12.442;2024-03-25T01:57:41;14.02;;;3.85;;
69502;SDS011;56704;54.242;12.442;2024-03-25T02:00:10;12.02;;;3.20;;
69502;SDS011;56704;54.242;12.442;2024-03-25T02:02:36;12.13;;;3.65;;
69502;SDS011;56704;54.242;12.442;2024-03-25T02:05:06;11.97;;;3.57;;
69502;SDS011;56704;54.242;12.442;2024-03-25T02:07:32;12.70;;;3.80;;
69502;SDS011;56704;54.242;12.442;2024-03-25T02:10:01;12.10;;;3.10;;
69502;SDS011;56704;54.242;12.442;2024-03-25T02:12:28;14.23;;;3.70;;
69502;SDS011;56704;54.242;12.442;2024-03-25T02:14:55;12.55;;;4.22;;
69502;SDS011;56704;54.242;12.442;2024-03-25T02:17:22;11.30;;;3.30;;
69502;SDS011;56704;54.242;12.442;2024-03-25T02:19:48;12.50;;;3.42;;
69502;SDS011;56704;54.242;12.442;2024-03-25T02:22:14;13.47;;;3.57;;
69502;SDS011;56704;54.242;12.442;2024-03-25T02:24:40;10.18;;;3.33;;
69502;SDS011;56704;54.242;12.442;2024-03-25T02:27:08;12.27;;;3.40;;
69502;SDS011;56704;54.242;12.442;2024-03-25T02:29:39;10.63;;;3.40;;
69502;SDS011;56704;54.242;12.442;2024-03-25T02:32:05;12.53;;;3.40;;
69502;SDS011;56704;54.242;12.442;2024-03-25T02:34:35;12.38;;;4.13;;
69502;SDS011;56704;54.242;12.442;2024-03-25T02:37:01;10.73;;;3.07;;
69502;SDS011;56704;54.242;12.442;2024-03-25T02:39:27;11.90;;;4.23;;
69502;SDS011;56704;54.242;12.442;2024-03-25T02:41:53;11.55;;;3.17;;
69502;SDS011;56704;54.242;12.442;2024-03-25T02:44:21;12.80;;;3.55;;
69502;SDS011;56704;54.242;12.442;2024-03-25T02:46:48;9.60;;;3.20;;
69502;SDS011;56704;54.242;12.442;2024-03-25T02:49:15;10.20;;;3.03;;
69502;SDS011;56704;54.242;12.442;2024-03-25T02:51:40;10.80;;;3.17;;
69502;SDS011;56704;54.242;12.442;2024-03-25T02:54:07;10.73;;;2.80;;
69502;SDS011;56704;54.242;12.442;2024-03-25T02:56:33;7.57;;;2.70;;
69502;SDS011;56704;54.242;12.442;2024-03-25T02:59:00;10.35;;;2.80;;
69502;SDS011;56704;54.242;12.442;2024-03-25T03:01:27;11.40;;;2.90;;
69502;SDS011;56704;54.242;12.442;2024-03-25T03:03:54;8.75;;;2.13;;
69502;SDS011;56704;54.242;12.442;2024-03-25T03:06:19;7.10;;;2.27;;
69502;SDS011;56704;54.242;12.442;2024-03-25T03:08:46;9.60;;;2.55;;
69502;SDS011;56704;54.242;12.442;2024-03-25T03:11:11;7.47;;;1.90;;
69502;SDS011;56704;54.242;12.442;2024-03-25T03:13:38;6.50;;;2.10;;
69502;SDS011;56704;54.242;12.442;2024-03-25T03:16:03;7.67;;;1.90;;
69502;SDS011;56704;54.242;12.442;2024-03-25T03:18:32;7.82;;;2.22;;
69502;SDS011;56704;54.242;12.442;2024-03-25T03:20:57;6.13;;;1.73;;
69502;SDS011;56704;54.242;12.442;2024-03-25T03:23:24;5.15;;;1.55;;
69502;SDS011;56704;54.242;12.442;2024-03-25T03:25:49;6.93;;;1.97;;
69502;SDS011;56704;54.242;12.442;2024-03-25T03:28:16;7.80;;;2.13;;
69502;SDS011;56704;54.242;12.442;2024-03-25T03:30:42;6.57;;;1.70;;
69502;SDS011;56704;54.242;12.442;2024-03-25T03:33:09;6.13;;;1.50;;
69502;SDS011;56704;54.242;12.442;2024-03-25T03:35:36;7.73;;;1.50;;
69502;SDS011;56704;54.242;12.442;2024-03-25T03:38:03;6.47;;;1.50;;
69502;SDS011;56704;54.242;12.442;2024-03-25T03:40:29;6.27;;;1.73;;
69502;SDS011;56704;54.242;12.442;2024-03-25T03:42:55;6.05;;;1.38;;
69502;SDS011;56704;54.242;12.442;2024-03-25T03:45:21;7.75;;;1.58;;
69502;SDS011;56704;54.242;12.442;2024-03-25T03:47:49;5.97;;;1.77;;
69502;SDS011;56704;54.242;12.442;2024-03-25T03:50:15;5.25;;;1.10;;
69502;SDS011;56704;54.242;12.442;2024-03-25T03:52:43;6.32;;;1.30;;
69502;SDS011;56704;54.242;12.442;2024-03-25T03:55:09;4.57;;;1.23;;
69502;SDS011;56704;54.242;12.442;2024-03-25T03:57:35;5.45;;;0.90;;
69502;SDS011;56704;54.242;12.442;2024-03-25T04:00:01;5.07;;;1.20;;
69502;SDS011;56704;54.242;12.442;2024-03-25T04:02:27;4.67;;;0.97;;
69502;SDS011;56704;54.242;12.442;2024-03-25T04:04:53;4.93;;;1.00;;
69502;SDS011;56704;54.242;12.442;2024-03-25T04:07:20;6.35;;;1.30;;
69502;SDS011;56704;54.242;12.442;2024-03-25T04:09:49;6.22;;;1.58;;
69502;SDS011;56704;54.242;12.442;2024-03-25T04:12:16;7.93;;;1.63;;
69502;SDS011;56704;54.242;12.442;2024-03-25T04:14:43;9.60;;;2.60;;
69502;SDS011;56704;54.242;12.442;2024-03-25T04:17:09;9.90;;;2.70;;
69502;SDS011;56704;54.242;12.442;2024-03-25T04:19:37;10.00;;;2.70;;
69502;SDS011;56704;54.242;12.442;2024-03-25T04:22:03;9.85;;;3.08;;
69502;SDS011;56704;54.242;12.442;2024-03-25T04:24:29;8.67;;;2.67;;
69502;SDS011;56704;54.242;12.442;2024-03-25T04:26:57;9.45;;;3.08;;
69502;SDS011;56704;54.242;12.442;2024-03-25T04:29:22;12.07;;;3.17;;
69502;SDS011;56704;54.242;12.442;2024-03-25T04:31:49;11.30;;;3.70;;
69502;SDS011;56704;54.242;12.442;2024-03-25T04:34:14;12.23;;;4.40;;
69502;SDS011;56704;54.242;12.442;2024-03-25T04:36:41;13.68;;;4.75;;
69502;SDS011;56704;54.242;12.442;2024-03-25T04:39:06;15.17;;;5.23;;
69502;SDS011;56704;54.242;12.442;2024-03-25T04:41:32;17.05;;;5.40;;
69502;SDS011;56704;54.242;12.442;2024-03-25T04:43:59;15.33;;;5.33;;
69502;SDS011;56704;54.242;12.442;2024-03-25T04:46:25;22.75;;;6.30;;
69502;SDS011;56704;54.242;12.442;2024-03-25T04:48:50;19.17;;;6.20;;
69502;SDS011;56704;54.242;12.442;2024-03-25T04:51:16;15.65;;;6.07;;
69502;SDS011;56704;54.242;12.442;2024-03-25T04:53:41;19.03;;;6.53;;
69502;SDS011;56704;54.242;12.442;2024-03-25T04:56:07;19.58;;;7.18;;
69502;SDS011;56704;54.242;12.442;2024-03-25T04:58:32;17.07;;;6.13;;
69502;SDS011;56704;54.242;12.442;2024-03-25T05:00:59;18.33;;;5.83;;
69502;SDS011;56704;54.242;12.442;2024-03-25T05:03:25;18.35;;;6.82;;
69502;SDS011;56704;54.242;12.442;2024-03-25T05:05:51;19.13;;;6.80;;
69502;SDS011;56704;54.242;12.442;2024-03-25T05:08:16;19.47;;;6.70;;
69502;SDS011;56704;54.242;12.442;2024-03-25T05:10:42;24.47;;;7.83;;
69502;SDS011;56704;54.242;12.442;2024-03-25T05:13:07;19.77;;;7.45;;
69502;SDS011;56704;54.242;12.442;2024-03-25T05:15:33;20.03;;;7.77;;
69502;SDS011;56704;54.242;12.442;2024-03-25T05:18:00;22.35;;;7.30;;
69502;SDS011;56704;54.242;12.442;2024-03-25T05:20:25;23.27;;;7.00;;
69502;SDS011;56704;54.242;12.442;2024-03-25T05:22:51;21.83;;;8.02;;
69502;SDS011;56704;54.242;12.442;2024-03-25T05:25:17;23.73;;;7.87;;
69502;SDS011;56704;54.242;12.442;2024-03-25T05:27:42;24.88;;;7.88;;
69502;SDS011;56704;54.242;12.442;2024-03-25T05:30:08;23.43;;;8.37;;
69502;SDS011;56704;54.242;12.442;2024-03-25T05:32:34;24.38;;;8.00;;
69502;SDS011;56704;54.242;12.442;2024-03-25T05:35:01;21.67;;;7.40;;
69502;SDS011;56704;54.242;12.442;2024-03-25T05:37:27;27.80;;;7.65;;
69502;SDS011;56704;54.242;12.442;2024-03-25T05:39:53;22.80;;;6.97;;
69502;SDS011;56704;54.242;12.442;2024-03-25T05:42:18;23.58;;;7.40;;
69502;SDS011;56704;54.242;12.442;2024-03-25T05:44:44;24.97;;;7.43;;
69502;SDS011;56704;54.242;12.442;2024-03-25T05:47:10;25.98;;;8.77;;
69502;SDS011;56704;54.242;12.442;2024-03-25T05:49:36;23.63;;;6.97;;
69502;SDS011;56704;54.242;12.442;2024-03-25T05:52:03;24.05;;;6.22;;
69502;SDS011;56704;54.242;12.442;2024-03-25T05:54:29;24.38;;;6.43;;
69502;SDS011;56704;54.242;12.442;2024-03-25T05:56:54;21.10;;;5.23;;
69502;SDS011;56704;54.242;12.442;2024-03-25T05:59:20;22.77;;;5.53;;
69502;SDS011;56704;54.242;12.442;2024-03-25T06:01:45;23.55;;;6.25;;
69502;SDS011;56704;54.242;12.442;2024-03-25T06:04:11;20.93;;;5.60;;
69502;SDS011;56704;54.242;12.442;2024-03-25T06:06:37;24.13;;;5.68;;
69502;SDS011;56704;54.242;12.442;2024-03-25T06:09:04;20.43;;;5.83;;
69502;SDS011;56704;54.242;12.442;2024-03-25T06:11:29;21.60;;;6.00;;
69502;SDS011;56704;54.242;12.442;2024-03-25T06:13:55;20.70;;;5.37;;
69502;SDS011;56704;54.242;12.442;2024-03-25T06:16:20;22.30;;;6.05;;
69502;SDS011;56704;54.242;12.442;2024-03-25T06:18:46;20.57;;;5.63;;
69502;SDS011;56704;54.242;12.442;2024-03-25T06:21:12;20.58;;;5.47;;
69502;SDS011;56704;54.242;12.442;2024-03-25T06:23:37;20.37;;;5.63;;
69502;SDS011;56704;54.242;12.442;2024-03-25T06:26:04;22.45;;;5.45;;
69502;SDS011;56704;54.242;12.442;2024-03-25T06:28:30;24.07;;;6.60;;
69502;SDS011;56704;54.242;12.442;2024-03-25T06:30:55;28.55;;;7.07;;
69502;SDS011;56704;54.242;12.442;2024-03-25T06:33:40;21.23;;;5.32;;
69502;SDS011;56704;54.242;12.442;2024-03-25T06:36:24;20.40;;;5.97;;
69502;SDS011;56704;54.242;12.442;2024-03-25T06:38:49;24.17;;;6.65;;
69502;SDS011;56704;54.242;12.442;2024-03-25T06:41:16;22.80;;;7.03;;
69502;SDS011;56704;54.242;12.442;2024-03-25T06:43:42;24.92;;;7.35;;
69502;SDS011;56704;54.242;12.442;2024-03-25T06:46:07;25.43;;;7.27;;
69502;SDS011;56704;54.242;12.442;2024-03-25T06:48:33;24.13;;;6.38;;
69502;SDS011;56704;54.242;12.442;2024-03-25T06:50:59;22.50;;;6.35;;
69502;SDS011;56704;54.242;12.442;2024-03-25T06:53:25;18.52;;;5.65;;
69502;SDS011;56704;54.242;12.442;2024-03-25T06:55:52;21.10;;;5.90;;
69502;SDS011;56704;54.242;12.442;2024-03-25T06:58:20;22.33;;;6.35;;
69502;SDS011;56704;54.242;12.442;2024-03-25T07:00:47;22.88;;;5.75;;
69502;SDS011;56704;54.242;12.442;2024-03-25T07:03:13;20.60;;;6.47;;
69502;SDS011;56704;54.242;12.442;2024-03-25T07:05:39;21.37;;;6.67;;
69502;SDS011;56704;54.242;12.442;2024-03-25T07:08:04;18.25;;;4.65;;
69502;SDS011;56704;54.242;12.442;2024-03-25T07:10:30;17.30;;;4.97;;
69502;SDS011;56704;54.242;12.442;2024-03-25T07:12:56;11.30;;;3.67;;
69502;SDS011;56704;54.242;12.442;2024-03-25T07:15:23;12.10;;;3.63;;
69502;SDS011;56704;54.242;12.442;2024-03-25T07:17:48;8.93;;;2.70;;
69502;SDS011;56704;54.242;12.442;2024-03-25T07:20:14;5.90;;;1.70;;
69502;SDS011;56704;54.242;12.442;2024-03-25T07:22:40;8.80;;;1.92;;
69502;SDS011;56704;54.242;12.442;2024-03-25T07:25:06;11.47;;;2.37;;
69502;SDS011;56704;54.242;12.442;2024-03-25T07:27:32;9.68;;;2.83;;
69502;SDS011;56704;54.242;12.442;2024-03-25T07:29:57;9.23;;;2.80;;
69502;SDS011;56704;54.242;12.442;2024-03-25T07:32:24;8.90;;;2.43;;
69502;SDS011;56704;54.242;12.442;2024-03-25T07:34:50;10.07;;;2.65;;
69502;SDS011;56704;54.242;12.442;2024-03-25T07:37:15;8.07;;;2.67;;
69502;SDS011;56704;54.242;12.442;2024-03-25T07:39:41;8.30;;;2.80;;
69502;SDS011;56704;54.242;12.442;2024-03-25T07:42:07;9.40;;;2.87;;
69502;SDS011;56704;54.242;12.442;2024-03-25T07:44:32;10.60;;;2.50;;
69502;SDS011;56704;54.242;12.442;2024-03-25T07:46:58;10.50;;;3.80;;
69502;SDS011;56704;54.242;12.442;2024-03-25T07:49:25;15.85;;;3.95;;
69502;SDS011;56704;54.242;12.442;2024-03-25T07:51:51;15.20;;;4.90;;
69502;SDS011;56704;54.242;12.442;2024-03-25T07:54:16;17.95;;;5.18;;
69502;SDS011;56704;54.242;12.442;2024-03-25T07:56:42;17.83;;;5.60;;
69502;SDS011;56704;54.242;12.442;2024-03-25T07:59:08;18.27;;;4.93;;
69502;SDS011;56704;54.242;12.442;2024-03-25T08:01:33;12.87;;;2.70;;
69502;SDS011;56704;54.242;12.442;2024-03-25T08:03:59;11.37;;;3.73;;
69502;SDS011;56704;54.242;12.442;2024-03-25T08:06:26;7.68;;;2.28;;
69502;SDS011;56704;54.242;12.442;2024-03-25T08:08:51;8.68;;;2.55;;
69502;SDS011;56704;54.242;12.442;2024-03-25T08:11:17;8.57;;;1.67;;
69502;SDS011;56704;54.242;12.442;2024-03-25T08:13:42;7.63;;;1.70;;
69502;SDS011;56704;54.242;12.442;2024-03-25T08:16:08;5.55;;;1.30;;
69502;SDS011;56704;54.242;12.442;2024-03-25T08:18:34;4.00;;;1.17;;
69502;SDS011;56704;54.242;12.442;2024-03-25T08:20:59;4.20;;;0.80;;
69502;SDS011;56704;54.242;12.442;2024-03-25T08:23:26;3.50;;;0.80;;
69502;SDS011;56704;54.242;12.442;2024-03-25T08:25:52;3.72;;;0.60;;
69502;SDS011;56704;54.242;12.442;2024-03-25T08:28:17;4.03;;;0.73;;
69502;SDS011;56704;54.242;12.442;2024-03-25T08:30:43;1.67;;;0.30;;
69502;SDS011;56704;54.242;12.442;2024-03-25T08:33:08;3.80;;;0.23;;
69502;SDS011;56704;54.242;12.442;2024-03-25T08:35:34;3.30;;;0.53;;
69502;SDS011;56704;54.242;12.442;2024-03-25T08:38:00;2.40;;;0.40;;
69502;SDS011;56704;54.242;12.442;2024-03-25T08:40:27;2.43;;;0.40;;
69502;SDS011;56704;54.242;12.442;2024-03-25T08:42:52;3.47;;;0.60;;
69502;SDS011;56704;54.242;12.442;2024-03-25T08:45:18;3.50;;;0.50;;
69502;SDS011;56704;54.242;12.442;2024-03-25T08:47:43;3.72;;;0.50;;
69502;SDS011;56704;54.242;12.442;2024-03-25T08:50:09;3.33;;;0.50;;
69502;SDS011;56704;54.242;12.442;2024-03-25T08:52:34;3.80;;;0.63;;
69502;SDS011;56704;54.242;12.442;2024-03-25T08:55:00;2.93;;;0.60;;
69502;SDS011;56704;54.242;12.442;2024-03-25T08:57:27;3.03;;;0.53;;
69502;SDS011;56704;54.242;12.442;2024-03-25T08:59:53;4.93;;;0.98;;
69502;SDS011;56704;54.242;12.442;2024-03-25T09:02:18;4.45;;;0.88;;
69502;SDS011;56704;54.242;12.442;2024-03-25T09:04:44;5.07;;;1.30;;
69502;SDS011;56704;54.242;12.442;2024-03-25T09:07:09;6.38;;;1.23;;
69502;SDS011;56704;54.242;12.442;2024-03-25T09:09:35;6.80;;;1.47;;
69502;SDS011;56704;54.242;12.442;2024-03-25T09:12:19;4.35;;;0.98;;
69502;SDS011;56704;54.242;12.442;2024-03-25T09:14:46;4.33;;;1.10;;
69502;SDS011;56704;54.242;12.442;2024-03-25T09:17:12;3.80;;;0.70;;
69502;SDS011;56704;54.242;12.442;2024-03-25T09:19:37;6.03;;;0.60;;
69502;SDS011;56704;54.242;12.442;2024-03-25T09:22:03;3.17;;;0.40;;
69502;SDS011;56704;54.242;12.442;2024-03-25T09:24:29;2.60;;;0.50;;
69502;SDS011;56704;54.242;12.442;2024-03-25T09:26:54;2.83;;;0.50;;
69502;SDS011;56704;54.242;12.442;2024-03-25T09:29:20;2.97;;;0.30;;
69502;SDS011;56704;54.242;12.442;2024-03-25T09:31:47;2.30;;;0.50;;
69502;SDS011;56704;54.242;12.442;2024-03-25T09:34:12;4.70;;;1.13;;
69502;SDS011;56704;54.242;12.442;2024-03-25T09:36:38;5.70;;;1.20;;
69502;SDS011;56704;54.242;12.442;2024-03-25T09:39:04;5.43;;;1.60;;
69502;SDS011;56704;54.242;12.442;2024-03-25T09:41:29;8.15;;;1.70;;
69502;SDS011;56704;54.242;12.442;2024-03-25T09:43:55;6.55;;;1.83;;
69502;SDS011;56704;54.242;12.442;2024-03-25T09:46:21;5.87;;;1.60;;
69502;SDS011;56704;54.242;12.442;2024-03-25T09:48:49;5.95;;;1.52;;
69502;SDS011;56704;54.242;12.442;2024-03-25T09:51:18;7.15;;;1.63;;
69502;SDS011;56704;54.242;12.442;2024-03-25T09:53:44;6.50;;;1.73;;
69502;SDS011;56704;54.242;12.442;2024-03-25T09:56:10;7.47;;;1.60;;
69502;SDS011;56704;54.242;12.442;2024-03-25T09:58:37;5.57;;;0.95;;
69502;SDS011;56704;54.242;12.442;2024-03-25T10:01:03;4.82;;;1.38;;
69502;SDS011;56704;54.242;12.442;2024-03-25T10:03:29;7.53;;;1.47;;
69502;SDS011;56704;54.242;12.442;2024-03-25T10:05:56;4.87;;;1.50;;
69502;SDS011;56704;54.242;12.442;2024-03-25T10:08:22;5.95;;;1.58;;
69502;SDS011;56704;54.242;12.442;2024-03-25T10:10:47;6.28;;;1.55;;
69502;SDS011;56704;54.242;12.442;2024-03-25T10:13:13;6.50;;;1.53;;
69502;SDS011;56704;54.242;12.442;2024-03-25T10:15:39;6.82;;;1.20;;
69502;SDS011;56704;54.242;12.442;2024-03-25T10:18:04;5.47;;;1.50;;
69502;SDS011;56704;54.242;12.442;2024-03-25T10:20:30;6.15;;;1.38;;
69502;SDS011;56704;54.242;12.442;2024-03-25T10:22:57;5.57;;;1.00;;
69502;SDS011;56704;54.242;12.442;2024-03-25T10:25:23;6.82;;;1.30;;
69502;SDS011;56704;54.242;12.442;2024-03-25T10:27:54;6.43;;;1.23;;
69502;SDS011;56704;54.242;12.442;2024-03-25T10:30:20;5.88;;;1.30;;
69502;SDS011;56704;54.242;12.442;2024-03-25T10:32:46;6.30;;;0.87;;
69502;SDS011;56704;54.242;12.442;2024-03-25T10:35:23;4.47;;;1.00;;
69502;SDS011;56704;54.242;12.442;2024-03-25T10:37:51;5.40;;;0.80;;
69502;SDS011;56704;54.242;12.442;2024-03-25T10:40:20;3.33;;;0.77;;
69502;SDS011;56704;54.242;12.442;2024-03-25T10:42:47;8.95;;;1.70;;
69502;SDS011;56704;54.242;12.442;2024-03-25T10:45:14;6.80;;;1.50;;
69502;SDS011;56704;54.242;12.442;2024-03-25T10:47:39;7.07;;;1.88;;
69502;SDS011;56704;54.242;12.442;2024-03-25T10:50:06;6.45;;;2.08;;
69502;SDS011;56704;54.242;12.442;2024-03-25T10:52:35;5.90;;;1.53;;
69502;SDS011;56704;54.242;12.442;2024-03-25T10:55:02;8.45;;;1.98;;
69502;SDS011;56704;54.242;12.442;2024-03-25T10:57:30;10.13;;;2.47;;
69502;SDS011;56704;54.242;12.442;2024-03-25T10:59:57;8.50;;;3.03;;
69502;SDS011;56704;54.242;12.442;2024-03-25T11:02:22;7.70;;;2.60;;
69502;SDS011;56704;54.242;12.442;2024-03-25T11:04:49;7.87;;;2.30;;
69502;SDS011;56704;54.242;12.442;2024-03-25T11:07:16;7.97;;;2.40;;
69502;SDS011;56704;54.242;12.442;2024-03-25T11:09:42;6.15;;;2.17;;
69502;SDS011;56704;54.242;12.442;2024-03-25T11:12:09;6.43;;;2.00;;
69502;SDS011;56704;54.242;12.442;2024-03-25T11:14:37;7.07;;;2.17;;
69502;SDS011;56704;54.242;12.442;2024-03-25T11:17:03;6.55;;;1.98;;
69502;SDS011;56704;54.242;12.442;2024-03-25T11:19:40;6.95;;;1.80;;
69502;SDS011;56704;54.242;12.442;2024-03-25T11:22:08;5.27;;;1.53;;
69502;SDS011;56704;54.242;12.442;2024-03-25T11:24:35;7.32;;;2.00;;
69502;SDS011;56704;54.242;12.442;2024-03-25T11:27:02;8.02;;;2.03;;
69502;SDS011;56704;54.242;12.442;2024-03-25T11:29:27;5.82;;;1.80;;
69502;SDS011;56704;54.242;12.442;2024-03-25T11:31:54;8.37;;;1.40;;
69502;SDS011;56704;54.242;12.442;2024-03-25T11:34:23;3.25;;;1.00;;
69502;SDS011;56704;54.242;12.442;2024-03-25T11:36:49;4.60;;;1.20;;
69502;SDS011;56704;54.242;12.442;2024-03-25T11:39:15;4.85;;;1.20;;
69502;SDS011;56704;54.242;12.442;2024-03-25T11:41:41;4.32;;;1.05;;
69502;SDS011;56704;54.242;12.442;2024-03-25T11:44:08;4.13;;;0.80;;
69502;SDS011;56704;54.242;12.442;2024-03-25T11:46:35;3.90;;;0.88;;
69502;SDS011;56704;54.242;12.442;2024-03-25T11:49:03;3.90;;;0.70;;
69502;SDS011;56704;54.242;12.442;2024-03-25T11:51:30;3.05;;;0.75;;
69502;SDS011;56704;54.242;12.442;2024-03-25T11:53:56;3.87;;;0.87;;
69502;SDS011;56704;54.242;12.442;2024-03-25T11:56:22;3.53;;;0.90;;
69502;SDS011;56704;54.242;12.442;2024-03-25T11:58:47;3.17;;;0.60;;
69502;SDS011;56704;54.242;12.442;2024-03-25T12:01:13;3.08;;;0.70;;
69502;SDS011;56704;54.242;12.442;2024-03-25T12:03:39;3.67;;;1.00;;
69502;SDS011;56704;54.242;12.442;2024-03-25T12:06:06;4.57;;;1.25;;
69502;SDS011;56704;54.242;12.442;2024-03-25T12:08:32;3.30;;;0.60;;
69502;SDS011;56704;54.242;12.442;2024-03-25T12:10:58;4.90;;;1.20;;
69502;SDS011;56704;54.242;12.442;2024-03-25T12:13:43;4.27;;;0.93;;
69502;SDS011;56704;54.242;12.442;2024-03-25T12:16:09;3.95;;;0.80;;
69502;SDS011;56704;54.242;12.442;2024-03-25T12:18:35;3.92;;;0.70;;
69502;SDS011;56704;54.242;12.442;2024-03-25T12:21:01;2.80;;;0.65;;
69502;SDS011;56704;54.242;12.442;2024-03-25T12:23:29;3.07;;;0.70;;
69502;SDS011;56704;54.242;12.442;2024-03-25T12:25:55;3.45;;;0.70;;
69502;SDS011;56704;54.242;12.442;2024-03-25T12:28:22;4.57;;;0.95;;
69502;SDS011;56704;54.242;12.442;2024-03-25T12:30:50;1.98;;;0.40;;
69502;SDS011;56704;54.242;12.442;2024-03-25T12:33:17;3.00;;;0.70;;
69502;SDS011;56704;54.242;12.442;2024-03-25T12:35:44;2.30;;;0.47;;
69502;SDS011;56704;54.242;12.442;2024-03-25T12:38:21;2.08;;;0.50;;
69502;SDS011;56704;54.242;12.442;2024-03-25T12:40:48;2.97;;;0.35;;
69502;SDS011;56704;54.242;12.442;2024-03-25T12:43:14;2.28;;;0.40;;
69502;SDS011;56704;54.242;12.442;2024-03-25T12:45:40;2.27;;;0.47;;
69502;SDS011;56704;54.242;12.442;2024-03-25T12:48:06;1.83;;;0.38;;
69502;SDS011;56704;54.242;12.442;2024-03-25T12:50:32;2.25;;;0.50;;
69502;SDS011;56704;54.242;12.442;2024-03-25T12:52:58;2.63;;;0.43;;
69502;SDS011;56704;54.242;12.442;2024-03-25T12:55:23;1.83;;;0.43;;
69502;SDS011;56704;54.242;12.442;2024-03-25T12:57:50;1.90;;;0.33;;
69502;SDS011;56704;54.242;12.442;2024-03-25T13:00:16;2.53;;;0.50;;
69502;SDS011;56704;54.242;12.442;2024-03-25T13:02:42;2.20;;;0.50;;
69502;SDS011;56704;54.242;12.442;2024-03-25T13:05:08;1.73;;;0.40;;
69502;SDS011;56704;54.242;12.442;2024-03-25T13:07:34;1.50;;;0.45;;
69502;SDS011;56704;54.242;12.442;2024-03-25T13:09:59;1.90;;;0.50;;
69502;SDS011;56704;54.242;12.442;2024-03-25T13:12:25;2.03;;;0.30;;
69502;SDS011;56704;54.242;12.442;2024-03-25T13:14:52;1.67;;;0.40;;
69502;SDS011;56704;54.242;12.442;2024-03-25T13:17:17;2.03;;;0.40;;
69502;SDS011;56704;54.242;12.442;2024-03-25T13:19:43;1.80;;;0.50;;
69502;SDS011;56704;54.242;12.442;2024-03-25T13:22:09;1.08;;;0.40;;
69502;SDS011;56704;54.242;12.442;2024-03-25T13:24:34;1.97;;;0.40;;
69502;SDS011;56704;54.242;12.442;2024-03-25T13:27:00;1.23;;;0.30;;
69502;SDS011;56704;54.242;12.442;2024-03-25T13:29:25;1.63;;;0.25;;
69502;SDS011;56704;54.242;12.442;2024-03-25T13:31:52;1.10;;;0.30;;
69502;SDS011;56704;54.242;12.442;2024-03-25T13:34:18;3.60;;;0.40;;
69502;SDS011;56704;54.242;12.442;2024-03-25T13:36:44;1.55;;;0.35;;
69502;SDS011;56704;54.242;12.442;2024-03-25T13:39:09;3.17;;;0.30;;
69502;SDS011;56704;54.242;12.442;2024-03-25T13:41:35;1.07;;;0.23;;
69502;SDS011;56704;54.242;12.442;2024-03-25T13:44:00;2.30;;;0.30;;
69502;SDS011;56704;54.242;12.442;2024-03-25T13:46:26;3.17;;;0.43;;
69502;SDS011;56704;54.242;12.442;2024-03-25T13:48:53;2.40;;;0.40;;
69502;SDS011;56704;54.242;12.442;2024-03-25T13:51:18;2.47;;;0.40;;
69502;SDS011;56704;54.242;12.442;2024-03-25T13:53:44;2.78;;;0.68;;
69502;SDS011;56704;54.242;12.442;2024-03-25T13:56:10;2.50;;;0.83;;
69502;SDS011;56704;54.242;12.442;2024-03-25T13:58:35;2.53;;;0.80;;
69502;SDS011;56704;54.242;12.442;2024-03-25T14:01:01;2.27;;;0.40;;
69502;SDS011;56704;54.242;12.442;2024-03-25T14:03:26;4.18;;;0.50;;
69502;SDS011;56704;54.242;12.442;2024-03-25T14:05:53;1.83;;;0.30;;
69502;SDS011;56704;54.242;12.442;2024-03-25T14:08:19;2.60;;;0.40;;
69502;SDS011;56704;54.242;12.442;2024-03-25T14:10:45;1.97;;;0.40;;
69502;SDS011;56704;54.242;12.442;2024-03-25T14:13:10;3.15;;;0.40;;
69502;SDS011;56704;54.242;12.442;2024-03-25T14:15:36;2.47;;;0.30;;
69502;SDS011;56704;54.242;12.442;2024-03-25T14:18:02;3.17;;;0.53;;
69502;SDS011;56704;54.242;12.442;2024-03-25T14:20:27;3.60;;;0.35;;
69502;SDS011;56704;54.242;12.442;2024-03-25T14:22:54;2.57;;;0.50;;
69502;SDS011;56704;54.242;12.442;2024-03-25T14:25:20;2.97;;;0.60;;